Time;durP1;ratioP1;P1;durP2;ratioP2;P2;SDS_P1;SDS_P2;PMS_P1;PMS_P2;Temp;Humidity;BMP_temperature;BMP_pressure;BME280_temperature;BME280_humidity;BME280_pressure;Samples;Min_cycle;Max_cycle;Signal;HPM_P1;HPM_P2
2022/08/01 00:00:11;;;;;;;6.05;4.75;;;18.90;99.90;;;;;;4861371;29;20045;-84
2022/08/01 00:02:37;;;;;;;6.00;4.22;;;18.90;99.90;;;;;;4861163;29;20045;-84
2022/08/01 00:05:05;;;;;;;6.40;4.60;;;18.90;99.90;;;;;;4859647;29;20038;-84
2022/08/01 00:07:32;;;;;;;8.65;4.97;;;18.90;99.90;;;;;;4831019;29;20041;-84
2022/08/01 00:09:58;;;;;;;5.93;4.85;;;18.90;99.90;;;;;;4859858;29;20124;-84
2022/08/01 00:12:23;;;;;;;6.82;4.93;;;18.90;99.90;;;;;;4858180;29;20124;-86
2022/08/01 00:14:49;;;;;;;5.22;4.40;;;18.90;99.90;;;;;;4830418;29;20057;-83
2022/08/01 00:17:15;;;;;;;6.63;4.50;;;18.90;99.90;;;;;;4857824;29;20042;-83
2022/08/01 00:19:41;;;;;;;4.80;4.22;;;18.90;99.90;;;;;;4846198;29;20505;-83
2022/08/01 00:22:06;;;;;;;5.43;3.88;;;18.90;99.90;;;;;;4844370;29;20033;-83
2022/08/01 00:24:32;;;;;;;7.03;4.10;;;18.90;99.90;;;;;;4845286;29;20402;-83
2022/08/01 00:26:58;;;;;;;5.10;4.07;;;18.90;99.90;;;;;;4859330;29;20041;-83
2022/08/01 00:29:23;;;;;;;4.88;3.65;;;18.80;99.90;;;;;;4842444;29;20068;-83
2022/08/01 00:31:49;;;;;;;4.38;3.28;;;18.80;99.90;;;;;;4843458;29;20121;-83
2022/08/01 00:34:15;;;;;;;6.38;3.38;;;18.80;99.90;;;;;;4851121;29;20042;-83
2022/08/01 00:36:40;;;;;;;6.22;3.42;;;18.80;99.90;;;;;;4840870;29;20053;-83
2022/08/01 00:39:06;;;;;;;5.82;3.70;;;18.80;99.90;;;;;;4854633;29;20137;-83
2022/08/01 00:41:32;;;;;;;4.32;3.45;;;18.80;99.90;;;;;;4834686;29;20049;-83
2022/08/01 00:43:57;;;;;;;7.90;3.88;;;18.80;99.90;;;;;;4844850;29;20518;-83
2022/08/01 00:46:23;;;;;;;9.82;3.67;;;18.80;99.90;;;;;;4842791;29;20034;-83
2022/08/01 00:48:49;;;;;;;6.78;3.55;;;18.80;99.90;;;;;;4842476;29;20583;-84
2022/08/01 00:51:15;;;;;;;6.53;3.50;;;18.80;99.90;;;;;;4853838;29;20114;-83
2022/08/01 00:53:41;;;;;;;7.90;3.95;;;18.80;99.90;;;;;;4863578;29;20407;-84
2022/08/01 00:56:07;;;;;;;5.60;3.78;;;18.80;99.90;;;;;;4865199;29;20046;-83
2022/08/01 00:58:33;;;;;;;6.80;4.00;;;18.80;99.90;;;;;;4856914;29;20105;-83
2022/08/01 01:00:59;;;;;;;4.68;3.78;;;18.80;99.90;;;;;;4859744;29;20092;-83
2022/08/01 01:03:26;;;;;;;6.65;3.50;;;18.70;99.90;;;;;;4858188;29;20049;-83
2022/08/01 01:06:14;;;;;;;6.07;3.90;;;18.70;99.90;;;;;;4859910;29;20049;-83
2022/08/01 01:08:51;;;;;;;4.10;3.60;;;18.70;99.90;;;;;;4859374;29;20049;-83
2022/08/01 01:11:28;;;;;;;3.95;3.55;;;18.70;99.90;;;;;;4849657;29;20055;-83
2022/08/01 01:14:01;;;;;;;6.95;4.00;;;18.70;99.90;;;;;;4849057;29;20041;-83
2022/08/01 01:16:28;;;;;;;7.15;4.10;;;18.70;99.90;;;;;;4861174;29;20049;-83
2022/08/01 01:18:58;;;;;;;7.38;4.15;;;18.70;99.90;;;;;;4862715;29;20160;-83
2022/08/01 01:21:45;;;;;;;7.57;4.20;;;18.70;99.90;;;;;;4856014;29;20049;-83
2022/08/01 01:24:40;;;;;;;5.15;3.80;;;18.70;99.90;;;;;;4872895;29;20120;-83
2022/08/01 01:27:21;;;;;;;5.90;3.83;;;18.70;99.90;;;;;;4854806;29;20057;-83
2022/08/01 01:29:52;;;;;;;5.97;3.60;;;18.70;99.90;;;;;;4864167;29;20042;-83
2022/08/01 01:32:33;;;;;;;5.30;3.97;;;18.70;99.90;;;;;;4861799;29;20045;-83
2022/08/01 01:35:05;;;;;;;3.72;3.40;;;18.70;99.90;;;;;;4855135;29;20109;-83
2022/08/01 01:37:33;;;;;;;6.53;3.85;;;18.70;99.90;;;;;;4862813;29;20054;-83
2022/08/01 01:40:00;;;;;;;3.88;3.42;;;18.70;99.90;;;;;;4865240;29;20057;-83
2022/08/01 01:42:27;;;;;;;4.57;3.42;;;18.70;99.90;;;;;;4850232;29;20081;-83
2022/08/01 01:44:54;;;;;;;6.25;3.80;;;18.70;99.90;;;;;;4862474;29;20525;-83
2022/08/01 01:47:22;;;;;;;7.18;3.85;;;18.70;99.90;;;;;;4866825;29;20069;-83
2022/08/01 01:49:49;;;;;;;4.93;3.30;;;18.70;99.90;;;;;;4851335;29;20066;-84
2022/08/01 01:52:18;;;;;;;4.22;3.70;;;18.70;99.90;;;;;;4858358;29;20105;-83
2022/08/01 01:54:51;;;;;;;4.40;3.75;;;18.70;99.90;;;;;;4879146;29;20148;-83
2022/08/01 01:57:18;;;;;;;4.35;3.60;;;18.70;99.90;;;;;;4865826;29;20057;-83
2022/08/01 01:59:46;;;;;;;5.93;4.00;;;18.70;99.90;;;;;;4864399;29;20053;-83
2022/08/01 02:02:13;;;;;;;3.97;3.30;;;18.70;99.90;;;;;;4861154;29;20050;-83
2022/08/01 02:04:45;;;;;;;4.80;3.75;;;18.70;99.90;;;;;;4857475;29;20132;-83
2022/08/01 02:07:16;;;;;;;3.88;3.53;;;18.70;99.90;;;;;;4865094;29;20112;-83
2022/08/01 02:09:43;;;;;;;7.05;3.80;;;18.60;99.90;;;;;;4849014;29;20050;-83
2022/08/01 02:12:14;;;;;;;4.95;3.83;;;18.70;99.90;;;;;;4862302;29;20049;-83
2022/08/01 02:14:41;;;;;;;4.60;3.88;;;18.60;99.90;;;;;;4874830;29;20045;-83
2022/08/01 02:17:10;;;;;;;4.55;3.75;;;18.60;99.90;;;;;;4863078;29;20571;-83
2022/08/01 02:19:36;;;;;;;3.67;3.20;;;18.70;99.90;;;;;;4858479;29;20050;-83
2022/08/01 02:22:07;;;;;;;5.05;3.63;;;18.60;99.90;;;;;;4846495;29;20041;-83
2022/08/01 02:25:09;;;;;;;3.45;3.15;;;18.60;99.90;;;;;;4844624;29;20042;-83
2022/08/01 02:27:45;;;;;;;4.65;3.17;;;18.60;99.90;;;;;;4821958;29;20108;-83
2022/08/01 02:30:13;;;;;;;4.68;3.60;;;18.50;99.90;;;;;;4872687;29;20509;-83
2022/08/01 02:33:01;;;;;;;5.20;3.40;;;18.50;99.90;;;;;;4856987;29;20045;-83
2022/08/01 02:35:30;;;;;;;6.38;3.00;;;18.50;99.90;;;;;;4857181;29;20502;-83
2022/08/01 02:37:58;;;;;;;5.60;3.25;;;18.40;99.90;;;;;;4857368;29;20550;-83
2022/08/01 02:40:26;;;;;;;5.53;3.08;;;18.40;99.90;;;;;;4861755;29;20136;-83
2022/08/01 02:42:54;;;;;;;3.95;3.25;;;18.40;99.90;;;;;;4877186;29;20049;-83
2022/08/01 02:45:24;;;;;;;5.82;2.83;;;18.40;99.90;;;;;;4862175;29;20041;-83
2022/08/01 02:47:53;;;;;;;3.97;2.80;;;18.40;99.90;;;;;;4862417;29;20064;-83
2022/08/01 02:50:20;;;;;;;2.97;2.55;;;18.30;99.90;;;;;;4861741;29;20079;-83
2022/08/01 02:52:49;;;;;;;4.53;2.83;;;18.40;99.90;;;;;;4857638;29;20045;-83
2022/08/01 02:55:17;;;;;;;4.15;2.40;;;18.30;99.90;;;;;;4838272;29;20060;-83
2022/08/01 02:57:45;;;;;;;7.63;2.75;;;18.30;99.90;;;;;;4871501;29;20046;-82
2022/08/01 03:00:11;;;;;;;4.15;2.70;;;18.30;99.90;;;;;;4854872;29;20064;-83
2022/08/01 03:02:38;;;;;;;3.42;2.97;;;18.30;99.90;;;;;;4844896;29;20054;-83
2022/08/01 03:05:08;;;;;;;5.60;2.75;;;18.40;99.90;;;;;;4840773;29;20046;-83
2022/08/01 03:07:34;;;;;;;3.28;2.75;;;18.40;99.90;;;;;;4855126;29;20495;-83
2022/08/01 03:10:01;;;;;;;3.78;3.10;;;18.30;99.90;;;;;;4860998;29;20053;-83
2022/08/01 03:12:32;;;;;;;5.88;3.83;;;18.40;99.90;;;;;;4823703;29;20045;-83
2022/08/01 03:15:00;;;;;;;5.25;3.42;;;18.30;99.90;;;;;;4858104;29;20134;-83
2022/08/01 03:17:28;;;;;;;6.85;3.30;;;18.30;99.90;;;;;;4832883;29;20098;-83
2022/08/01 03:19:55;;;;;;;5.63;3.30;;;18.30;99.90;;;;;;4861476;29;20049;-83
2022/08/01 03:22:24;;;;;;;4.82;3.30;;;18.30;99.90;;;;;;4853330;29;20058;-83
2022/08/01 03:24:52;;;;;;;4.40;3.60;;;18.20;99.90;;;;;;4841660;29;20049;-83
2022/08/01 03:27:21;;;;;;;5.78;3.50;;;18.20;99.90;;;;;;4853744;29;20082;-83
2022/08/01 03:29:48;;;;;;;8.05;3.78;;;18.20;99.90;;;;;;4855128;29;20042;-83
2022/08/01 03:32:15;;;;;;;5.75;3.78;;;18.20;99.90;;;;;;4849277;29;20451;-83
2022/08/01 03:34:42;;;;;;;4.50;3.25;;;18.20;99.90;;;;;;4858443;29;20120;-83
2022/08/01 03:37:25;;;;;;;6.55;3.72;;;18.20;99.90;;;;;;4830361;29;20050;-83
2022/08/01 03:39:54;;;;;;;5.25;3.33;;;18.20;99.90;;;;;;4842298;29;20062;-83
2022/08/01 03:42:24;;;;;;;5.05;3.22;;;18.20;99.90;;;;;;4856710;29;20061;-83
2022/08/01 03:44:56;;;;;;;5.15;2.80;;;18.20;99.90;;;;;;4843620;29;20045;-83
2022/08/01 03:47:27;;;;;;;7.22;2.80;;;18.10;99.90;;;;;;4837396;29;20041;-83
2022/08/01 03:49:54;;;;;;;3.15;2.40;;;18.10;99.90;;;;;;4853361;29;20046;-83
2022/08/01 03:52:21;;;;;;;5.40;2.80;;;18.00;99.90;;;;;;4839557;29;20657;-83
2022/08/01 03:54:49;;;;;;;5.53;2.38;;;18.00;99.90;;;;;;4842884;29;20410;-83
2022/08/01 03:57:16;;;;;;;3.25;2.25;;;18.00;99.90;;;;;;4868681;29;20112;-83
2022/08/01 03:59:43;;;;;;;4.10;2.20;;;17.90;99.90;;;;;;4847592;29;20054;-83
2022/08/01 04:02:09;;;;;;;5.35;2.33;;;17.90;99.90;;;;;;4825881;29;20057;-83
2022/08/01 04:04:35;;;;;;;5.18;2.42;;;17.90;99.90;;;;;;4838359;29;20042;-83
2022/08/01 04:07:06;;;;;;;6.32;2.28;;;17.90;99.90;;;;;;4823232;29;20098;-83
2022/08/01 04:09:32;;;;;;;5.65;2.55;;;17.90;99.90;;;;;;4860691;29;20521;-83
2022/08/01 04:12:01;;;;;;;4.55;2.40;;;17.90;99.90;;;;;;4846230;29;20045;-83
2022/08/01 04:14:28;;;;;;;4.40;2.33;;;17.90;99.90;;;;;;4857529;29;20053;-83
2022/08/01 04:16:54;;;;;;;5.25;2.25;;;17.90;99.90;;;;;;4876078;29;20045;-83
2022/08/01 04:19:20;;;;;;;5.28;2.60;;;17.90;99.90;;;;;;4853548;29;20073;-83
2022/08/01 04:21:45;;;;;;;7.85;2.47;;;17.90;99.90;;;;;;4860288;29;20079;-83
2022/08/01 04:24:16;;;;;;;3.75;2.03;;;17.80;99.90;;;;;;4860581;29;20033;-83
2022/08/01 04:26:45;;;;;;;3.10;1.80;;;17.80;99.90;;;;;;4855406;29;20037;-82
2022/08/01 04:29:11;;;;;;;5.00;1.88;;;17.80;99.90;;;;;;4835862;29;20038;-83
2022/08/01 04:31:41;;;;;;;5.57;2.05;;;17.80;99.90;;;;;;4853317;29;20491;-83
2022/08/01 04:34:09;;;;;;;4.43;2.35;;;17.80;99.90;;;;;;4843213;29;20053;-83
2022/08/01 04:36:37;;;;;;;4.35;2.22;;;17.80;99.90;;;;;;4858157;29;20045;-83
2022/08/01 04:39:04;;;;;;;5.55;2.10;;;17.90;99.90;;;;;;4845006;29;20142;-83
2022/08/01 04:41:31;;;;;;;4.55;2.25;;;17.90;99.90;;;;;;4825722;29;20046;-83
2022/08/01 04:43:59;;;;;;;6.60;2.20;;;17.90;99.90;;;;;;4840699;29;20049;-83
2022/08/01 04:46:26;;;;;;;4.05;2.05;;;17.90;99.90;;;;;;4867662;29;20042;-86
2022/08/01 04:48:52;;;;;;;4.35;1.98;;;17.90;99.90;;;;;;4853420;29;20428;-84
2022/08/01 04:51:21;;;;;;;4.53;2.03;;;17.90;99.90;;;;;;4835744;29;20441;-84
2022/08/01 04:53:47;;;;;;;6.30;2.38;;;17.90;99.90;;;;;;4836711;29;20101;-83
2022/08/01 04:56:13;;;;;;;5.60;2.65;;;17.90;99.90;;;;;;4845387;29;20057;-84
2022/08/01 04:58:43;;;;;;;4.80;2.30;;;17.90;99.90;;;;;;4851341;29;20514;-84
2022/08/01 05:01:10;;;;;;;6.68;2.80;;;17.90;99.90;;;;;;4843846;29;20525;-84
2022/08/01 05:03:36;;;;;;;10.38;2.35;;;17.80;99.90;;;;;;4865641;29;20120;-84
2022/08/01 05:06:02;;;;;;;6.38;2.60;;;17.80;99.90;;;;;;4851250;29;20042;-84
2022/08/01 05:08:28;;;;;;;8.77;2.85;;;17.80;99.90;;;;;;4859248;29;20445;-84
2022/08/01 05:10:54;;;;;;;6.35;2.63;;;17.80;99.90;;;;;;4852621;29;20041;-84
2022/08/01 05:13:20;;;;;;;4.30;2.80;;;17.80;99.90;;;;;;4858814;29;20041;-83
2022/08/01 05:15:46;;;;;;;8.48;3.00;;;17.70;99.90;;;;;;4839556;29;20412;-83
2022/08/01 05:18:11;;;;;;;6.13;2.97;;;17.80;99.90;;;;;;4845587;29;20053;-83
2022/08/01 05:20:37;;;;;;;6.70;2.83;;;17.80;99.90;;;;;;4830227;29;20510;-83
2022/08/01 05:23:04;;;;;;;6.55;3.10;;;17.80;99.90;;;;;;4860274;29;20042;-84
2022/08/01 05:25:30;;;;;;;6.43;2.95;;;17.70;99.90;;;;;;4851734;29;20038;-84
2022/08/01 05:27:55;;;;;;;9.00;3.13;;;17.70;99.90;;;;;;4857021;29;20511;-84
2022/08/01 05:30:21;;;;;;;11.68;3.20;;;17.70;99.90;;;;;;4862149;29;20048;-83
2022/08/01 05:32:47;;;;;;;14.75;2.83;;;17.70;99.90;;;;;;4852291;29;20057;-83
2022/08/01 05:35:13;;;;;;;9.60;3.25;;;17.70;99.90;;;;;;4827141;29;20096;-84
2022/08/01 05:37:38;;;;;;;11.35;2.85;;;17.70;99.90;;;;;;4814261;29;20115;-85
2022/08/01 05:40:05;;;;;;;9.77;3.05;;;17.70;99.90;;;;;;4856698;29;20136;-85
2022/08/01 05:42:31;;;;;;;10.13;3.95;;;17.80;99.90;;;;;;4865295;29;20050;-85
2022/08/01 05:44:56;;;;;;;15.50;3.75;;;17.80;99.90;;;;;;4861572;29;20038;-83
2022/08/01 05:47:22;;;;;;;10.63;3.45;;;17.80;99.90;;;;;;4863287;29;20037;-83
2022/08/01 05:49:48;;;;;;;13.48;3.33;;;17.70;99.90;;;;;;4863927;29;20044;-83
2022/08/01 05:52:14;;;;;;;12.98;3.38;;;17.70;99.90;;;;;;4866830;29;20041;-83
2022/08/01 05:54:39;;;;;;;11.98;3.45;;;17.70;99.90;;;;;;4855134;29;20124;-83
2022/08/01 05:57:05;;;;;;;12.65;3.40;;;17.70;99.90;;;;;;4862470;29;20376;-84
2022/08/01 05:59:31;;;;;;;15.82;3.80;;;17.70;99.90;;;;;;4841490;29;20099;-83
2022/08/01 06:01:57;;;;;;;13.68;4.30;;;17.70;99.90;;;;;;4847487;29;20053;-83
2022/08/01 06:04:23;;;;;;;14.35;3.72;;;17.70;99.90;;;;;;4845347;29;20045;-83
2022/08/01 06:06:49;;;;;;;16.88;3.53;;;17.70;99.90;;;;;;4841049;29;20102;-83
2022/08/01 06:09:14;;;;;;;18.33;3.63;;;17.70;99.90;;;;;;4857610;29;20037;-84
2022/08/01 06:11:40;;;;;;;17.33;3.63;;;17.70;99.90;;;;;;4848397;29;20046;-83
2022/08/01 06:14:06;;;;;;;15.90;3.78;;;17.80;99.90;;;;;;4863350;29;20049;-83
2022/08/01 06:16:32;;;;;;;13.50;3.78;;;17.80;99.90;;;;;;4856586;29;20046;-83
2022/08/01 06:18:58;;;;;;;15.50;3.55;;;17.80;99.90;;;;;;4853671;29;20045;-84
2022/08/01 06:21:23;;;;;;;16.48;3.28;;;17.80;99.90;;;;;;4854917;29;20057;-84
2022/08/01 06:23:49;;;;;;;15.35;3.50;;;17.80;99.90;;;;;;4858808;29;20116;-84
2022/08/01 06:26:18;;;;;;;14.93;3.05;;;17.80;99.90;;;;;;4849688;29;20049;-84
2022/08/01 06:28:44;;;;;;;18.90;3.92;;;17.80;99.90;;;;;;4856583;29;20391;-83
2022/08/01 06:31:12;;;;;;;22.23;3.63;;;17.80;99.90;;;;;;4877309;29;20041;-84
2022/08/01 06:33:37;;;;;;;11.77;3.03;;;17.70;99.90;;;;;;4859647;29;20563;-84
2022/08/01 06:36:03;;;;;;;13.57;3.13;;;17.70;99.90;;;;;;4844237;29;20045;-84
2022/08/01 06:38:29;;;;;;;12.60;3.20;;;17.70;99.90;;;;;;4874127;29;20050;-84
2022/08/01 06:40:55;;;;;;;15.98;3.20;;;17.70;99.90;;;;;;4846062;29;20058;-84
2022/08/01 06:43:21;;;;;;;13.75;4.18;;;17.80;99.90;;;;;;4854443;29;20478;-83
2022/08/01 06:45:47;;;;;;;15.73;3.25;;;17.80;99.90;;;;;;4861095;29;20568;-84
2022/08/01 06:48:12;;;;;;;18.50;3.72;;;17.80;99.90;;;;;;4838723;29;20045;-84
2022/08/01 06:50:38;;;;;;;14.75;3.13;;;17.80;99.90;;;;;;4862563;29;20049;-85
2022/08/01 06:53:04;;;;;;;14.63;3.17;;;17.80;99.90;;;;;;4859629;29;20037;-83
2022/08/01 06:55:30;;;;;;;13.52;3.33;;;17.80;99.90;;;;;;4840880;29;20102;-83
2022/08/01 06:57:56;;;;;;;12.80;3.10;;;17.70;99.90;;;;;;4859594;29;20567;-84
2022/08/01 07:00:24;;;;;;;19.40;3.58;;;17.70;99.90;;;;;;4844403;29;20080;-84
2022/08/01 07:02:55;;;;;;;18.58;3.10;;;17.70;99.90;;;;;;4839805;29;20065;-84
2022/08/01 07:05:22;;;;;;;11.88;3.00;;;17.70;99.90;;;;;;4843360;29;20053;-83
2022/08/01 07:07:47;;;;;;;14.00;3.50;;;17.70;99.90;;;;;;4854200;29;20145;-84
2022/08/01 07:10:13;;;;;;;15.02;3.35;;;17.80;99.90;;;;;;4837409;29;20483;-83
2022/08/01 07:12:40;;;;;;;13.70;3.10;;;17.80;99.90;;;;;;4844807;29;20077;-84
2022/08/01 07:15:07;;;;;;;11.55;3.00;;;17.80;99.90;;;;;;4848826;29;20046;-84
2022/08/01 07:17:39;;;;;;;14.15;3.20;;;17.80;99.90;;;;;;4849482;29;20049;-84
2022/08/01 07:20:07;;;;;;;13.70;3.45;;;17.80;99.90;;;;;;4860908;29;20037;-84
2022/08/01 07:22:33;;;;;;;12.88;3.17;;;17.90;99.90;;;;;;4858189;29;20045;-84
2022/08/01 07:24:59;;;;;;;16.27;3.22;;;18.00;99.90;;;;;;4861791;29;20057;-84
2022/08/01 07:27:24;;;;;;;13.27;2.75;;;18.10;99.90;;;;;;4839175;29;20049;-84
2022/08/01 07:29:50;;;;;;;13.02;2.58;;;18.10;99.90;;;;;;4851962;29;20049;-85
2022/08/01 07:32:16;;;;;;;12.82;3.50;;;18.10;99.90;;;;;;4857801;29;20107;-85
2022/08/01 07:34:41;;;;;;;16.27;3.15;;;18.10;99.90;;;;;;4837229;29;20109;-84
2022/08/01 07:37:07;;;;;;;11.02;3.17;;;18.20;99.90;;;;;;4861939;29;20410;-85
2022/08/01 07:39:33;;;;;;;11.90;3.03;;;18.20;99.90;;;;;;4854178;29;20058;-84
2022/08/01 07:41:58;;;;;;;14.15;2.97;;;18.30;99.90;;;;;;4853841;29;20145;-84
2022/08/01 07:44:24;;;;;;;19.88;2.85;;;18.40;99.90;;;;;;4860287;29;20182;-83
2022/08/01 07:46:50;;;;;;;12.20;2.88;;;18.50;99.90;;;;;;4843949;29;20053;-84
2022/08/01 07:49:15;;;;;;;16.88;3.47;;;18.60;99.90;;;;;;4847266;29;20380;-84
2022/08/01 07:51:41;;;;;;;13.30;2.95;;;18.70;99.90;;;;;;4854396;29;20411;-84
2022/08/01 07:54:07;;;;;;;14.95;3.17;;;18.80;99.90;;;;;;4849823;29;20077;-84
2022/08/01 07:56:33;;;;;;;15.23;2.83;;;19.10;99.90;;;;;;4861101;29;20053;-84
2022/08/01 07:58:58;;;;;;;15.05;2.88;;;19.20;99.90;;;;;;4871009;29;20056;-84
2022/08/01 08:01:24;;;;;;;16.50;3.03;;;19.40;99.90;;;;;;4854445;29;20042;-84
2022/08/01 08:03:50;;;;;;;12.43;2.33;;;19.60;99.90;;;;;;4859451;29;20045;-83
2022/08/01 08:06:15;;;;;;;14.02;3.42;;;19.50;99.90;;;;;;4856541;29;20044;-84
2022/08/01 08:08:41;;;;;;;15.85;3.25;;;19.50;99.90;;;;;;4828452;29;20499;-85
2022/08/01 08:11:07;;;;;;;18.20;2.92;;;19.60;99.90;;;;;;4854203;29;20045;-84
2022/08/01 08:13:33;;;;;;;16.63;2.97;;;19.60;99.90;;;;;;4835907;29;20128;-84
2022/08/01 08:15:59;;;;;;;12.85;3.00;;;19.40;99.90;;;;;;4845506;29;20569;-84
2022/08/01 08:18:25;;;;;;;16.10;3.90;;;19.30;99.90;;;;;;4848030;29;20101;-85
2022/08/01 08:20:51;;;;;;;12.55;2.88;;;19.20;99.90;;;;;;4846406;29;20120;-84
2022/08/01 08:26:01;;;;;;;12.98;2.70;;;19.20;99.90;;;;;;4849293;29;20084;-84
2022/08/01 08:28:27;;;;;;;14.80;3.22;;;19.10;99.90;;;;;;4841753;29;20046;-85
2022/08/01 08:30:54;;;;;;;18.35;3.35;;;19.20;99.90;;;;;;4829412;29;20508;-85
2022/08/01 08:33:20;;;;;;;12.98;3.05;;;19.20;99.90;;;;;;4846024;29;20049;-85
2022/08/01 08:35:46;;;;;;;11.02;3.15;;;19.20;99.90;;;;;;4855047;29;20041;-86
2022/08/01 08:38:11;;;;;;;14.55;2.90;;;19.30;99.90;;;;;;4841719;29;20049;-86
2022/08/01 08:40:37;;;;;;;12.05;2.78;;;19.50;99.90;;;;;;4854830;29;20057;-86
2022/08/01 08:43:06;;;;;;;11.30;2.75;;;19.50;99.90;;;;;;4852121;29;20070;-85
2022/08/01 08:45:33;;;;;;;17.17;2.75;;;19.60;99.90;;;;;;4851196;29;20046;-85
2022/08/01 08:47:59;;;;;;;8.68;2.67;;;19.50;99.90;;;;;;4855080;29;20141;-85
2022/08/01 08:50:26;;;;;;;14.63;2.58;;;19.50;99.90;;;;;;4849200;29;20038;-85
2022/08/01 08:52:54;;;;;;;5.57;2.10;;;19.50;99.90;;;;;;4855412;29;20054;-85
2022/08/01 08:55:21;;;;;;;13.70;2.97;;;19.60;99.90;;;;;;4841246;29;20483;-85
2022/08/01 08:57:47;;;;;;;14.32;2.83;;;19.60;99.90;;;;;;4857304;29;20501;-85
2022/08/01 09:00:14;;;;;;;9.10;2.30;;;19.60;99.90;;;;;;4858813;29;20041;-86
2022/08/01 09:02:46;;;;;;;14.43;2.65;;;19.60;99.90;;;;;;4827695;29;20056;-85
2022/08/01 09:05:12;;;;;;;12.38;3.20;;;19.60;99.90;;;;;;4851004;29;20525;-85
2022/08/01 09:07:38;;;;;;;13.88;2.60;;;19.60;99.90;;;;;;4849906;29;20046;-85
2022/08/01 09:10:04;;;;;;;13.38;2.83;;;19.50;99.90;;;;;;4842569;29;20057;-86
2022/08/01 09:12:30;;;;;;;7.90;2.63;;;19.60;99.90;;;;;;4839536;29;20481;-85
2022/08/01 09:14:56;;;;;;;11.68;2.40;;;19.60;99.90;;;;;;4849757;29;20060;-85
2022/08/01 09:17:21;;;;;;;10.50;2.83;;;19.60;99.90;;;;;;4854076;29;20049;-86
2022/08/01 09:19:52;;;;;;;17.90;2.63;;;19.70;99.90;;;;;;4844637;29;20475;-84
2022/08/01 09:22:22;;;;;;;12.48;2.70;;;19.90;99.90;;;;;;4848584;29;20052;-85
2022/08/01 09:25:03;;;;;;;17.23;3.33;;;20.00;99.90;;;;;;4848083;29;20102;-85
2022/08/01 09:27:30;;;;;;;11.05;2.80;;;20.10;99.90;;;;;;4854427;29;20050;-86
2022/08/01 09:30:13;;;;;;;9.32;2.92;;;20.10;99.90;;;;;;4859487;29;20105;-85
2022/08/01 09:33:02;;;;;;;9.35;2.40;;;20.10;99.90;;;;;;4855492;29;20057;-85
2022/08/01 09:35:37;;;;;;;11.82;2.70;;;20.10;99.90;;;;;;4848365;29;20046;-85
2022/08/01 09:38:19;;;;;;;8.55;2.38;;;20.10;99.90;;;;;;4859772;29;20061;-85
2022/08/01 09:40:52;;;;;;;11.98;2.67;;;20.20;99.90;;;;;;4863490;29;20062;-85
2022/08/01 09:43:19;;;;;;;10.48;2.90;;;20.30;99.90;;;;;;4859153;29;20054;-85
2022/08/01 09:45:45;;;;;;;9.95;3.30;;;20.30;99.90;;;;;;4847266;29;20087;-85
2022/08/01 09:48:15;;;;;;;8.13;2.30;;;20.40;99.90;;;;;;4856390;29;20049;-86
2022/08/01 09:50:43;;;;;;;9.50;2.38;;;20.40;99.90;;;;;;4849480;29;20041;-84
2022/08/01 09:53:10;;;;;;;9.43;2.30;;;20.40;99.90;;;;;;4837370;29;20121;-85
2022/08/01 09:55:37;;;;;;;9.05;2.42;;;20.50;99.90;;;;;;4863287;29;20052;-86
2022/08/01 09:58:04;;;;;;;8.30;2.10;;;20.40;99.90;;;;;;4857847;29;20052;-85
2022/08/01 10:00:31;;;;;;;9.82;2.22;;;20.40;99.90;;;;;;4855134;29;20522;-85
2022/08/01 10:02:58;;;;;;;7.88;2.22;;;20.30;99.90;;;;;;4851953;29;20124;-85
2022/08/01 10:05:32;;;;;;;12.07;2.60;;;20.40;99.90;;;;;;4856478;29;20042;-85
2022/08/01 10:08:01;;;;;;;6.82;2.40;;;20.40;99.90;;;;;;4859096;29;20073;-86
2022/08/01 10:10:27;;;;;;;9.50;2.10;;;20.60;99.90;;;;;;4847952;29;20402;-85
2022/08/01 10:12:56;;;;;;;10.40;2.55;;;20.60;99.90;;;;;;4847632;29;20054;-85
2022/08/01 10:15:23;;;;;;;8.85;2.42;;;20.80;99.90;;;;;;4841463;29;20053;-85
2022/08/01 10:18:00;;;;;;;7.25;2.22;;;20.50;99.90;;;;;;4856368;29;20058;-86
2022/08/01 10:20:29;;;;;;;7.05;2.10;;;20.50;99.90;;;;;;4843471;29;20045;-86
2022/08/01 10:22:57;;;;;;;12.02;2.60;;;20.60;99.90;;;;;;4847069;29;20040;-85
2022/08/01 10:25:25;;;;;;;7.65;2.00;;;20.60;99.90;;;;;;4854237;29;20045;-86
2022/08/01 10:27:56;;;;;;;12.57;2.13;;;20.60;99.90;;;;;;4847377;29;20081;-87
2022/08/01 10:30:22;;;;;;;9.30;2.10;;;20.60;99.90;;;;;;4865611;29;20038;-86
2022/08/01 10:32:49;;;;;;;6.72;1.90;;;20.60;99.90;;;;;;4872567;29;20057;-84
2022/08/01 10:35:17;;;;;;;7.38;1.80;;;20.60;99.90;;;;;;4839735;29;20057;-85
2022/08/01 10:37:50;;;;;;;10.32;2.17;;;20.70;99.90;;;;;;4834907;29;20050;-85
2022/08/01 10:40:17;;;;;;;14.32;2.00;;;20.80;99.90;;;;;;4858240;29;20160;-85
2022/08/01 10:42:44;;;;;;;5.15;2.10;;;20.90;99.90;;;;;;4857629;29;20045;-85
2022/08/01 10:45:13;;;;;;;7.25;1.55;;;20.80;99.90;;;;;;4857235;29;20045;-87
2022/08/01 10:47:51;;;;;;;10.02;2.28;;;20.90;99.90;;;;;;4856990;29;20505;-87
2022/08/01 10:50:23;;;;;;;11.10;1.90;;;21.00;99.90;;;;;;4869906;29;20136;-86
2022/08/01 10:53:25;;;;;;;7.43;2.10;;;21.00;99.90;;;;;;4845035;29;20049;-85
2022/08/01 10:56:00;;;;;;;5.97;1.70;;;21.10;99.90;;;;;;4810025;29;20092;-86
2022/08/01 10:58:38;;;;;;;11.38;2.08;;;21.20;99.90;;;;;;4847093;29;20136;-85
2022/08/01 11:01:23;;;;;;;7.85;1.70;;;21.20;99.90;;;;;;4859164;29;20048;-85
2022/08/01 11:04:01;;;;;;;6.77;2.30;;;21.30;99.90;;;;;;4844815;29;20042;-85
2022/08/01 11:06:33;;;;;;;4.95;1.55;;;21.30;99.90;;;;;;4846794;29;20364;-85
2022/08/01 11:09:02;;;;;;;3.65;1.42;;;21.30;99.90;;;;;;4860087;29;20049;-86
2022/08/01 11:11:28;;;;;;;8.18;1.73;;;21.40;99.90;;;;;;4861900;29;20153;-86
2022/08/01 11:14:00;;;;;;;5.25;1.42;;;21.50;99.90;;;;;;4844635;29;20060;-85
2022/08/01 11:16:31;;;;;;;4.97;1.60;;;21.60;99.90;;;;;;4844141;29;20432;-85
2022/08/01 11:18:57;;;;;;;10.77;1.80;;;21.70;99.90;;;;;;4859250;29;20049;-84
2022/08/01 11:21:52;;;;;;;5.80;1.60;;;21.60;99.90;;;;;;4862113;29;20052;-84
2022/08/01 11:24:51;;;;;;;8.52;1.60;;;21.60;99.90;;;;;;4846797;29;20097;-84
2022/08/01 11:27:31;;;;;;;7.70;1.60;;;21.50;99.90;;;;;;4848324;29;20044;-88
2022/08/01 11:30:09;;;;;;;4.20;1.63;;;21.60;99.90;;;;;;4861869;29;20045;-86
2022/08/01 11:32:47;;;;;;;6.78;1.60;;;21.50;99.90;;;;;;4862623;29;20052;-86
2022/08/01 11:35:13;;;;;;;7.88;1.88;;;21.50;99.90;;;;;;4874056;29;20030;-84
2022/08/01 11:37:39;;;;;;;8.63;2.10;;;21.60;99.90;;;;;;4879771;29;20084;-85
2022/08/01 11:40:28;;;;;;;4.53;1.88;;;21.60;99.90;;;;;;4870960;29;20061;-86
2022/08/01 11:43:16;;;;;;;7.85;1.83;;;21.70;99.90;;;;;;4882824;29;20045;-86
2022/08/01 11:45:55;;;;;;;5.95;2.00;;;21.70;99.90;;;;;;4860435;29;20128;-85
2022/08/01 11:48:23;;;;;;;6.47;1.80;;;21.70;99.90;;;;;;4846164;29;20053;-86
2022/08/01 11:50:54;;;;;;;6.97;1.85;;;21.60;99.90;;;;;;4858882;29;20046;-86
2022/08/01 11:53:21;;;;;;;7.40;1.80;;;21.70;99.90;;;;;;4840428;29;20065;-86
2022/08/01 11:55:52;;;;;;;7.32;1.63;;;21.60;99.90;;;;;;4856953;29;20093;-86
2022/08/01 11:58:26;;;;;;;4.50;1.15;;;21.60;99.90;;;;;;4838070;29;20376;-86
2022/08/01 12:00:56;;;;;;;5.28;1.60;;;21.70;99.90;;;;;;4841655;29;20124;-86
2022/08/01 12:03:31;;;;;;;9.70;1.85;;;21.70;99.90;;;;;;4857542;29;20105;-86
2022/08/01 12:05:58;;;;;;;5.20;1.40;;;21.80;99.90;;;;;;4852903;29;20632;-85
2022/08/01 12:08:29;;;;;;;5.32;1.48;;;21.80;99.90;;;;;;4857546;29;20046;-85
2022/08/01 12:10:55;;;;;;;3.28;1.33;;;21.90;99.90;;;;;;4860155;29;20049;-86
2022/08/01 12:13:21;;;;;;;5.95;1.30;;;21.90;99.90;;;;;;4862846;29;20137;-86
2022/08/01 12:15:49;;;;;;;6.82;1.40;;;21.90;99.90;;;;;;4834187;29;20046;-86
2022/08/01 12:18:16;;;;;;;4.78;1.40;;;22.00;99.90;;;;;;4854941;29;20046;-87
2022/08/01 12:20:44;;;;;;;4.32;1.30;;;22.00;99.90;;;;;;4858494;29;20126;-86
2022/08/01 12:23:12;;;;;;;6.38;1.55;;;22.00;99.90;;;;;;4856278;29;20045;-87
2022/08/01 12:25:39;;;;;;;5.28;1.83;;;22.00;99.40;;;;;;4830695;29;20079;-87
2022/08/01 12:28:07;;;;;;;6.97;1.50;;;22.00;99.70;;;;;;4853155;29;20076;-86
2022/08/01 12:30:35;;;;;;;3.13;1.13;;;22.10;99.70;;;;;;4855246;29;20094;-86
2022/08/01 12:33:02;;;;;;;8.85;1.50;;;22.10;99.60;;;;;;4843504;29;20058;-86
2022/08/01 12:35:29;;;;;;;6.68;1.60;;;22.20;98.80;;;;;;4857493;29;20049;-86
2022/08/01 12:38:00;;;;;;;3.65;1.10;;;22.30;99.10;;;;;;4855512;29;20046;-85
2022/08/01 12:40:28;;;;;;;4.90;1.40;;;22.40;97.70;;;;;;4861705;29;20534;-85
2022/08/01 12:42:59;;;;;;;4.70;1.63;;;22.40;98.60;;;;;;4854737;29;20052;-86
2022/08/01 12:45:28;;;;;;;4.47;1.30;;;22.40;98.30;;;;;;4861061;29;20042;-86
2022/08/01 12:47:57;;;;;;;4.43;1.40;;;22.40;97.40;;;;;;4857459;29;20130;-85
2022/08/01 12:50:25;;;;;;;4.22;1.48;;;22.40;96.60;;;;;;4841216;29;20038;-84
2022/08/01 12:52:51;;;;;;;3.88;1.20;;;22.50;96.40;;;;;;4847693;29;20056;-84